Time;durP1;ratioP1;P1;durP2;ratioP2;P2;SDS_P1;SDS_P2;PMS_P1;PMS_P2;Temp;Humidity;BMP_temperature;BMP_pressure;BME280_temperature;BME280_humidity;BME280_pressure;Samples;Min_cycle;Max_cycle;Signal;HPM_P1;HPM_P2
2022/06/24 00:02:00;;;;;;;7.45;6.00;;;25.00;52.80;;;;;;5051008;28;20453;-62
2022/06/24 00:04:28;;;;;;;9.65;7.95;;;25.00;52.50;;;;;;5051920;28;20098;-63
2022/06/24 00:06:56;;;;;;;7.15;6.22;;;25.00;53.80;;;;;;5051998;28;20554;-63
2022/06/24 00:09:25;;;;;;;8.27;7.53;;;24.90;53.60;;;;;;5052585;28;20408;-63
2022/06/24 00:12:06;;;;;;;11.30;9.50;;;24.80;53.80;;;;;;5051786;28;20045;-62
2022/06/24 00:14:32;;;;;;;7.00;5.45;;;24.90;54.80;;;;;;5052229;28;20532;-63
2022/06/24 00:17:05;;;;;;;6.18;4.68;;;24.80;53.90;;;;;;5050136;28;20029;-68
2022/06/24 00:19:34;;;;;;;5.53;5.03;;;24.80;53.10;;;;;;5052347;28;20119;-68
2022/06/24 00:22:12;;;;;;;5.38;4.88;;;24.70;52.80;;;;;;5050684;28;20437;-68
2022/06/24 00:24:40;;;;;;;9.63;8.70;;;24.70;52.70;;;;;;5050878;28;20041;-68
2022/06/24 00:27:19;;;;;;;6.28;5.68;;;24.60;53.80;;;;;;5051611;28;20045;-67
2022/06/24 00:29:46;;;;;;;7.07;4.97;;;24.60;53.30;;;;;;5044373;28;20061;-68
2022/06/24 00:32:11;;;;;;;6.57;5.93;;;24.60;53.10;;;;;;5051444;28;20240;-68
2022/06/24 00:34:39;;;;;;;6.18;5.43;;;24.50;53.00;;;;;;5051737;28;20123;-68
2022/06/24 00:37:23;;;;;;;6.63;4.90;;;24.50;52.90;;;;;;5051976;28;20037;-68
2022/06/24 00:39:50;;;;;;;9.55;7.13;;;24.50;52.80;;;;;;5052252;28;20071;-68
2022/06/24 00:42:20;;;;;;;8.10;7.00;;;24.40;53.50;;;;;;5051444;28;20128;-68
2022/06/24 00:45:15;;;;;;;11.52;10.13;;;24.40;54.00;;;;;;5051391;28;20051;-67
2022/06/24 00:47:42;;;;;;;8.18;7.45;;;24.40;54.70;;;;;;5049978;28;20048;-68
2022/06/24 00:50:28;;;;;;;6.80;5.68;;;24.30;54.50;;;;;;5052142;28;20052;-67
2022/06/24 00:52:59;;;;;;;6.72;5.95;;;24.30;53.80;;;;;;5051828;28;20037;-68
2022/06/24 00:55:34;;;;;;;6.90;6.20;;;24.20;53.80;;;;;;5051596;28;20615;-68
2022/06/24 00:58:01;;;;;;;8.75;5.93;;;24.20;53.70;;;;;;5054340;28;20037;-68
2022/06/24 01:00:30;;;;;;;6.53;5.82;;;24.20;54.00;;;;;;5055004;28;20112;-68
2022/06/24 01:03:00;;;;;;;13.45;8.35;;;24.10;53.70;;;;;;5054022;28;20090;-68
2022/06/24 01:05:28;;;;;;;12.23;9.50;;;24.10;54.30;;;;;;5054337;28;20087;-68
2022/06/24 01:07:54;;;;;;;8.80;6.63;;;24.10;54.90;;;;;;5055364;28;20116;-68
2022/06/24 01:10:20;;;;;;;11.05;9.93;;;24.00;54.60;;;;;;5055473;28;20480;-67
2022/06/24 01:12:46;;;;;;;9.40;8.50;;;24.00;55.10;;;;;;5055499;28;20051;-68
2022/06/24 01:15:12;;;;;;;7.03;6.22;;;23.90;55.20;;;;;;5054175;28;20132;-68
2022/06/24 01:17:38;;;;;;;7.88;6.15;;;23.90;54.70;;;;;;5054933;28;20071;-68
2022/06/24 01:20:13;;;;;;;6.60;5.85;;;23.90;54.70;;;;;;5055307;28;20048;-68
2022/06/24 01:22:40;;;;;;;10.63;9.52;;;23.80;54.10;;;;;;5054615;28;20031;-69
2022/06/24 01:25:08;;;;;;;10.80;8.82;;;23.80;54.70;;;;;;5054914;28;20041;-68
2022/06/24 01:27:34;;;;;;;6.82;6.13;;;23.70;55.30;;;;;;5036543;28;20037;-68
2022/06/24 01:30:00;;;;;;;8.02;7.15;;;23.70;55.00;;;;;;5054914;28;20052;-68
2022/06/24 01:32:25;;;;;;;8.80;8.00;;;23.70;54.90;;;;;;5054435;28;20045;-68
2022/06/24 01:34:51;;;;;;;10.18;8.88;;;23.60;55.60;;;;;;5054578;28;20049;-68
2022/06/24 01:37:17;;;;;;;7.28;6.30;;;23.60;55.80;;;;;;5054124;28;20045;-68
2022/06/24 01:39:44;;;;;;;6.85;6.03;;;23.50;55.40;;;;;;5054610;28;20036;-68
2022/06/24 01:42:10;;;;;;;7.40;6.53;;;23.50;55.00;;;;;;5052752;28;20090;-68
2022/06/24 01:44:35;;;;;;;7.25;6.55;;;23.50;55.00;;;;;;5053299;28;20032;-68
2022/06/24 01:47:02;;;;;;;7.45;6.75;;;23.50;54.80;;;;;;5052506;28;20041;-68
2022/06/24 01:49:28;;;;;;;7.85;7.07;;;23.50;54.80;;;;;;5054515;28;20480;-67
2022/06/24 01:51:55;;;;;;;7.85;6.55;;;23.40;54.80;;;;;;5054634;28;20036;-68
2022/06/24 01:54:21;;;;;;;10.88;9.70;;;23.40;55.40;;;;;;5036484;28;20402;-67
2022/06/24 01:56:47;;;;;;;12.98;11.70;;;23.40;55.60;;;;;;5054499;28;20071;-68
2022/06/24 01:59:14;;;;;;;12.25;11.05;;;23.40;56.60;;;;;;5052395;28;20037;-68
2022/06/24 02:01:41;;;;;;;14.73;13.32;;;23.40;57.00;;;;;;5053232;28;20033;-67
2022/06/24 02:04:08;;;;;;;7.90;7.18;;;23.30;57.50;;;;;;5052603;28;20116;-67
2022/06/24 02:06:34;;;;;;;9.73;7.05;;;23.20;57.20;;;;;;5054013;28;20040;-68
2022/06/24 02:08:59;;;;;;;11.18;7.35;;;23.10;56.60;;;;;;5053379;28;20048;-67
2022/06/24 02:14:10;;;;;;;11.48;10.38;;;23.10;56.30;;;;;;5053752;28;20449;-67
2022/06/24 02:16:37;;;;;;;9.45;8.65;;;23.00;57.10;;;;;;5052447;28;20483;-68
2022/06/24 02:19:04;;;;;;;18.83;16.80;;;23.00;57.20;;;;;;5047697;28;20029;-67
2022/06/24 02:21:29;;;;;;;15.15;13.63;;;23.00;58.50;;;;;;5053872;28;20555;-68
2022/06/24 02:23:55;;;;;;;11.27;10.07;;;23.00;59.00;;;;;;5053807;28;20041;-67
2022/06/24 02:26:21;;;;;;;9.02;8.02;;;22.90;58.60;;;;;;5053502;28;20479;-67
2022/06/24 02:28:47;;;;;;;8.05;7.00;;;22.90;58.00;;;;;;5053679;28;20150;-68
2022/06/24 02:31:13;;;;;;;8.82;7.97;;;22.90;57.20;;;;;;5053918;28;20053;-67
2022/06/24 02:33:39;;;;;;;9.65;8.65;;;22.80;57.20;;;;;;5053210;28;20068;-67
2022/06/24 02:36:05;;;;;;;16.90;15.23;;;22.80;57.30;;;;;;5053114;28;20468;-68
2022/06/24 02:38:32;;;;;;;16.70;14.95;;;22.80;58.60;;;;;;5053816;28;20033;-68
2022/06/24 02:40:58;;;;;;;12.32;11.05;;;22.80;59.30;;;;;;5052286;28;20037;-67
2022/06/24 02:43:35;;;;;;;10.05;8.50;;;22.70;59.20;;;;;;5053425;28;20048;-68
2022/06/24 02:46:19;;;;;;;11.18;9.50;;;22.90;58.80;;;;;;5053319;28;20435;-67
2022/06/24 02:48:44;;;;;;;13.05;11.70;;;22.70;58.20;;;;;;5052094;28;20041;-68
2022/06/24 02:51:12;;;;;;;12.02;10.82;;;22.70;58.40;;;;;;5053324;28;20514;-67
2022/06/24 02:53:39;;;;;;;10.25;9.13;;;22.70;58.90;;;;;;5053403;28;20060;-68
2022/06/24 02:56:10;;;;;;;9.73;7.90;;;22.60;58.60;;;;;;5051221;28;20175;-67
2022/06/24 02:58:36;;;;;;;9.27;8.23;;;22.60;58.30;;;;;;5051874;28;20044;-66
2022/06/24 03:01:03;;;;;;;8.93;8.02;;;22.60;58.10;;;;;;5053520;28;20499;-67
2022/06/24 03:03:29;;;;;;;8.57;7.70;;;22.60;58.10;;;;;;5052767;28;20041;-68
2022/06/24 03:05:56;;;;;;;10.13;8.32;;;22.60;57.90;;;;;;5053279;28;20052;-67
2022/06/24 03:08:23;;;;;;;17.15;15.32;;;22.60;57.80;;;;;;5052826;28;20521;-68
2022/06/24 03:10:49;;;;;;;14.07;12.60;;;22.60;59.00;;;;;;5053437;28;20535;-68
2022/06/24 03:13:15;;;;;;;9.93;8.65;;;22.70;59.50;;;;;;5053077;28;20076;-67
2022/06/24 03:15:43;;;;;;;11.93;10.82;;;22.70;58.90;;;;;;5051620;28;20029;-66
2022/06/24 03:18:11;;;;;;;15.48;13.85;;;22.70;58.90;;;;;;5053187;28;20103;-66
2022/06/24 03:20:36;;;;;;;12.98;11.57;;;22.70;59.40;;;;;;5052006;28;20037;-66
2022/06/24 03:23:02;;;;;;;12.57;11.38;;;22.70;59.10;;;;;;5052846;28;20048;-68
2022/06/24 03:25:28;;;;;;;12.85;11.32;;;22.70;59.20;;;;;;5051182;28;20074;-67
2022/06/24 03:27:53;;;;;;;11.15;10.10;;;22.60;59.30;;;;;;5052985;28;20040;-67
2022/06/24 03:30:19;;;;;;;14.30;12.82;;;22.70;59.10;;;;;;5050711;28;20479;-67
2022/06/24 03:32:45;;;;;;;15.43;13.93;;;22.70;59.80;;;;;;5052958;28;20106;-67
2022/06/24 03:35:11;;;;;;;17.48;15.05;;;22.70;61.20;;;;;;5052149;28;20496;-67
2022/06/24 03:37:36;;;;;;;18.65;15.82;;;22.70;62.00;;;;;;5051356;28;20048;-68
2022/06/24 03:40:03;;;;;;;17.45;15.57;;;22.70;62.60;;;;;;5052218;28;20041;-68
2022/06/24 03:42:29;;;;;;;18.13;16.30;;;22.70;63.50;;;;;;5052739;28;20037;-66
2022/06/24 03:44:55;;;;;;;17.27;15.43;;;22.70;64.00;;;;;;5052119;28;20052;-66
2022/06/24 03:47:22;;;;;;;20.00;17.42;;;22.70;64.40;;;;;;5052190;28;20044;-67
2022/06/24 03:49:47;;;;;;;17.40;15.60;;;22.70;65.10;;;;;;5051267;28;20048;-66
2022/06/24 03:52:13;;;;;;;14.98;11.57;;;22.60;65.30;;;;;;5052904;28;20401;-66
2022/06/24 03:54:39;;;;;;;14.90;12.27;;;22.60;65.00;;;;;;5051381;28;20041;-66
2022/06/24 03:57:05;;;;;;;11.52;10.32;;;22.60;64.80;;;;;;5052515;28;20043;-68
2022/06/24 03:59:31;;;;;;;12.57;7.72;;;22.60;64.40;;;;;;5034102;28;20045;-67
2022/06/24 04:01:57;;;;;;;12.52;7.38;;;22.60;64.60;;;;;;5051729;28;20033;-67
2022/06/24 04:04:23;;;;;;;9.07;6.03;;;22.60;64.80;;;;;;5050714;28;20045;-67
2022/06/24 04:06:49;;;;;;;7.53;5.32;;;22.50;64.70;;;;;;5052568;28;20037;-67
2022/06/24 04:09:15;;;;;;;6.95;4.68;;;22.50;64.80;;;;;;5051909;28;20485;-67
2022/06/24 04:11:40;;;;;;;5.45;4.47;;;22.40;65.00;;;;;;5052394;28;20041;-66
2022/06/24 04:14:06;;;;;;;5.10;4.45;;;22.40;64.60;;;;;;5052518;28;20045;-62
2022/06/24 04:16:33;;;;;;;5.40;4.45;;;22.30;64.70;;;;;;5052069;28;20040;-62
2022/06/24 04:18:58;;;;;;;5.35;4.35;;;22.30;64.50;;;;;;5051219;28;20063;-60
2022/06/24 04:21:24;;;;;;;6.05;4.15;;;22.30;64.40;;;;;;5052200;28;20033;-61
2022/06/24 04:23:50;;;;;;;6.78;3.47;;;22.30;64.40;;;;;;5052212;28;20037;-61
2022/06/24 04:26:18;;;;;;;6.57;3.58;;;22.30;64.00;;;;;;5052052;28;20531;-61
2022/06/24 04:28:45;;;;;;;5.18;3.47;;;22.30;63.80;;;;;;5052667;28;20048;-61
2022/06/24 04:31:12;;;;;;;5.05;3.38;;;22.30;64.20;;;;;;5051908;28;20068;-61
2022/06/24 04:33:38;;;;;;;3.85;3.05;;;22.30;64.50;;;;;;5055315;28;20045;-61
2022/06/24 04:36:10;;;;;;;4.70;3.38;;;22.30;64.10;;;;;;5054765;28;20049;-61
2022/06/24 04:38:36;;;;;;;4.70;3.38;;;22.30;64.80;;;;;;5056128;28;20040;-61
2022/06/24 04:41:10;;;;;;;4.38;3.20;;;22.30;63.80;;;;;;5055398;28;20037;-61
2022/06/24 04:43:35;;;;;;;;;;;22.30;64.30;;;;;;5056371;28;20052;-61
2022/06/24 04:46:01;;;;;;;5.03;3.40;;;22.30;63.40;;;;;;5055320;28;20257;-60
2022/06/24 04:48:27;;;;;;;4.38;3.47;;;22.30;64.10;;;;;;5055844;28;20044;-61
2022/06/24 04:50:53;;;;;;;5.47;3.92;;;22.30;64.90;;;;;;5054656;28;20033;-61
2022/06/24 04:53:19;;;;;;;3.97;3.55;;;22.40;65.70;;;;;;5054492;28;20043;-61
2022/06/24 04:55:45;;;;;;;5.20;3.70;;;22.30;65.90;;;;;;5054075;28;20037;-62
2022/06/24 04:58:10;;;;;;;3.65;3.10;;;22.40;66.00;;;;;;5054989;28;20511;-62
2022/06/24 05:00:37;;;;;;;4.63;3.33;;;22.30;65.80;;;;;;5054561;28;20511;-61
2022/06/24 05:03:03;;;;;;;4.68;3.17;;;22.30;65.80;;;;;;5054360;28;20051;-61
2022/06/24 05:05:29;;;;;;;5.30;3.50;;;22.30;65.90;;;;;;5053107;28;20539;-62
2022/06/24 05:07:54;;;;;;;5.18;2.85;;;22.30;66.40;;;;;;5055419;28;20033;-61
2022/06/24 05:10:20;;;;;;;3.75;2.80;;;22.30;65.90;;;;;;5055039;28;20045;-62
2022/06/24 05:12:46;;;;;;;4.57;3.05;;;22.30;65.50;;;;;;5055346;28;20033;-62
2022/06/24 05:15:11;;;;;;;5.30;3.15;;;22.30;65.70;;;;;;5054982;28;20044;-62
2022/06/24 05:17:37;;;;;;;5.03;3.20;;;22.30;65.80;;;;;;5055194;28;20032;-61
2022/06/24 05:20:03;;;;;;;3.85;3.10;;;22.30;66.00;;;;;;5054726;28;20059;-61
2022/06/24 05:22:29;;;;;;;4.25;3.10;;;22.30;66.10;;;;;;5054905;28;20041;-63
2022/06/24 05:24:55;;;;;;;4.93;4.05;;;22.30;66.20;;;;;;5053916;28;20051;-67
2022/06/24 05:27:20;;;;;;;4.70;3.53;;;22.30;66.00;;;;;;5055048;28;20052;-62
2022/06/24 05:29:46;;;;;;;4.93;3.42;;;22.30;66.00;;;;;;5054761;28;20120;-61
2022/06/24 05:32:12;;;;;;;5.75;3.47;;;22.30;66.20;;;;;;5054997;28;20041;-62
2022/06/24 05:34:37;;;;;;;4.60;3.53;;;22.30;66.30;;;;;;5054832;28;20037;-61
2022/06/24 05:37:03;;;;;;;5.80;3.45;;;22.30;66.40;;;;;;5054596;28;20040;-61
2022/06/24 05:39:29;;;;;;;4.07;3.10;;;22.30;65.70;;;;;;5052738;28;20045;-61
2022/06/24 05:41:55;;;;;;;4.57;2.88;;;22.30;65.40;;;;;;5053990;28;20148;-63
2022/06/24 05:44:20;;;;;;;4.25;2.95;;;22.30;65.00;;;;;;5051581;28;20037;-63
2022/06/24 05:46:46;;;;;;;4.00;2.95;;;22.30;65.40;;;;;;5054778;28;20044;-61
2022/06/24 05:49:12;;;;;;;4.60;3.22;;;22.40;65.10;;;;;;5054783;28;20041;-65
2022/06/24 05:51:37;;;;;;;7.53;4.22;;;22.40;65.20;;;;;;5053827;28;20033;-66
2022/06/24 05:56:49;;;;;;;4.43;3.03;;;22.40;65.60;;;;;;5054028;28;20067;-67
2022/06/24 05:59:14;;;;;;;6.35;4.60;;;22.40;65.70;;;;;;5053115;28;20033;-67
2022/06/24 06:01:40;;;;;;;4.78;3.88;;;22.40;66.30;;;;;;5054454;28;20068;-67
2022/06/24 06:04:06;;;;;;;5.05;3.28;;;22.40;66.70;;;;;;5053775;28;20033;-67
2022/06/24 06:06:32;;;;;;;4.65;3.08;;;22.50;67.00;;;;;;5054297;28;20055;-68
2022/06/24 06:08:57;;;;;;;5.30;3.30;;;22.40;66.50;;;;;;5053152;28;20041;-67
2022/06/24 06:11:25;;;;;;;4.15;2.92;;;22.50;66.30;;;;;;5054074;28;20037;-67
2022/06/24 06:13:52;;;;;;;4.00;2.95;;;22.50;66.20;;;;;;5054410;28;20081;-67
2022/06/24 06:16:18;;;;;;;4.72;3.92;;;22.50;65.90;;;;;;5054157;28;20051;-69
2022/06/24 06:18:44;;;;;;;3.28;2.67;;;22.50;65.80;;;;;;5053492;28;20029;-67
2022/06/24 06:21:11;;;;;;;4.20;2.97;;;22.50;65.70;;;;;;5052776;28;20082;-67
2022/06/24 06:23:40;;;;;;;4.78;2.65;;;22.50;65.60;;;;;;5054260;28;20028;-67
2022/06/24 06:26:08;;;;;;;2.80;2.50;;;22.60;65.40;;;;;;5048123;28;20042;-67
2022/06/24 06:28:34;;;;;;;4.30;3.90;;;22.60;64.90;;;;;;5051333;28;20037;-67
2022/06/24 06:31:00;;;;;;;4.07;2.95;;;22.60;65.20;;;;;;5053014;28;20049;-67
2022/06/24 06:33:26;;;;;;;4.03;2.90;;;22.60;65.50;;;;;;5052549;28;20370;-66
2022/06/24 06:36:00;;;;;;;2.85;2.50;;;22.60;65.30;;;;;;5050815;28;20088;-67
2022/06/24 06:38:26;;;;;;;4.00;3.15;;;22.70;65.10;;;;;;5053626;28;20072;-67
2022/06/24 06:40:51;;;;;;;3.83;2.97;;;22.70;65.30;;;;;;5053493;28;20098;-67
2022/06/24 06:43:17;;;;;;;5.97;3.40;;;22.70;65.50;;;;;;5053226;28;20086;-67
2022/06/24 06:45:42;;;;;;;4.28;3.80;;;22.70;65.50;;;;;;5052318;28;20045;-67
2022/06/24 06:48:08;;;;;;;3.92;3.00;;;22.70;65.70;;;;;;5053842;28;20053;-66
2022/06/24 06:50:34;;;;;;;5.05;2.85;;;22.70;65.70;;;;;;5053507;28;20082;-66
2022/06/24 06:53:00;;;;;;;3.95;3.50;;;22.60;65.40;;;;;;5051931;28;20044;-66
2022/06/24 06:55:25;;;;;;;3.63;2.47;;;22.70;65.30;;;;;;5053411;28;20098;-66
2022/06/24 06:57:51;;;;;;;4.32;2.90;;;22.60;65.30;;;;;;5053023;28;20480;-67
2022/06/24 07:00:17;;;;;;;4.05;3.08;;;22.70;65.10;;;;;;5053041;28;20116;-67
2022/06/24 07:02:43;;;;;;;3.42;3.05;;;22.60;64.60;;;;;;5052350;28;20068;-67
2022/06/24 07:05:09;;;;;;;6.90;3.83;;;22.60;64.90;;;;;;5053328;28;20075;-67
2022/06/24 07:07:34;;;;;;;5.35;3.78;;;22.70;65.10;;;;;;5052979;28;20515;-67
2022/06/24 07:10:01;;;;;;;4.50;3.55;;;22.70;65.00;;;;;;5053527;28;20041;-67
2022/06/24 07:12:27;;;;;;;4.03;3.50;;;22.70;65.70;;;;;;5051584;28;20044;-66
2022/06/24 07:14:53;;;;;;;4.93;3.83;;;22.70;65.60;;;;;;5053475;28;20116;-66
2022/06/24 07:17:19;;;;;;;6.63;4.05;;;22.70;66.10;;;;;;5053087;28;20389;-67
2022/06/24 07:19:46;;;;;;;3.28;2.92;;;22.70;66.30;;;;;;5052325;28;20384;-67
2022/06/24 07:22:13;;;;;;;4.80;3.20;;;22.70;65.80;;;;;;5053075;28;20033;-67
2022/06/24 07:24:39;;;;;;;4.95;4.20;;;22.70;66.10;;;;;;5052562;28;20032;-67
2022/06/24 07:27:07;;;;;;;5.82;4.07;;;22.70;66.50;;;;;;5052786;28;20553;-66
2022/06/24 07:29:34;;;;;;;3.55;3.00;;;22.70;66.90;;;;;;5051632;28;20147;-66
2022/06/24 07:32:04;;;;;;;4.13;3.45;;;22.60;66.80;;;;;;5050561;28;20045;-67
2022/06/24 07:34:32;;;;;;;5.22;3.35;;;22.60;66.60;;;;;;5052485;28;20064;-66
2022/06/24 07:37:02;;;;;;;2.83;2.50;;;22.60;66.20;;;;;;5052914;28;20045;-66
2022/06/24 07:39:28;;;;;;;3.88;2.85;;;22.50;65.30;;;;;;5052723;28;20594;-66
2022/06/24 07:41:54;;;;;;;5.03;3.53;;;22.60;65.30;;;;;;5052310;28;20124;-65
2022/06/24 07:44:21;;;;;;;4.50;3.25;;;22.60;65.90;;;;;;5052607;28;20175;-66
2022/06/24 07:46:47;;;;;;;3.45;2.17;;;22.50;65.90;;;;;;5053012;28;20033;-67
2022/06/24 07:49:13;;;;;;;3.85;2.90;;;22.50;65.30;;;;;;5052770;28;20123;-66
2022/06/24 07:51:38;;;;;;;4.55;3.67;;;22.50;64.90;;;;;;5042717;28;20140;-65
2022/06/24 07:54:07;;;;;;;4.88;3.38;;;22.50;65.50;;;;;;5049404;28;20403;-67
2022/06/24 07:59:21;;;;;;;3.22;2.83;;;22.40;66.30;;;;;;5052443;28;20052;-67
2022/06/24 08:01:47;;;;;;;5.38;3.50;;;22.40;65.60;;;;;;5050680;28;20041;-67
2022/06/24 08:04:14;;;;;;;4.90;2.78;;;22.40;65.50;;;;;;5051487;28;20052;-67
2022/06/24 08:06:46;;;;;;;4.35;2.88;;;22.50;65.10;;;;;;5053117;28;20102;-66
2022/06/24 08:09:13;;;;;;;3.47;3.05;;;22.40;65.10;;;;;;5056399;28;20477;-66
2022/06/24 08:11:39;;;;;;;3.47;2.50;;;22.40;65.40;;;;;;5056386;28;20493;-67
2022/06/24 08:14:05;;;;;;;6.13;3.75;;;22.40;65.40;;;;;;5056474;28;20496;-68
2022/06/24 08:16:31;;;;;;;4.25;3.28;;;22.50;65.10;;;;;;5038755;28;20041;-67
2022/06/24 08:18:56;;;;;;;4.38;3.03;;;22.50;65.20;;;;;;5056631;28;20037;-66
2022/06/24 08:21:22;;;;;;;4.30;2.70;;;22.50;65.10;;;;;;5056289;28;20039;-67
2022/06/24 08:23:48;;;;;;;5.38;3.05;;;22.50;64.80;;;;;;5056358;28;20056;-67
2022/06/24 08:26:16;;;;;;;5.43;3.88;;;22.50;64.70;;;;;;5056562;28;20044;-66
2022/06/24 08:28:42;;;;;;;6.38;3.58;;;22.50;65.00;;;;;;5056221;28;20033;-66
2022/06/24 08:31:08;;;;;;;3.60;3.25;;;22.50;65.50;;;;;;5055390;28;20469;-65
2022/06/24 08:33:33;;;;;;;4.57;2.90;;;22.50;65.10;;;;;;5055335;28;20045;-66
2022/06/24 08:35:59;;;;;;;3.55;2.55;;;22.50;65.30;;;;;;5055374;28;20395;-67
2022/06/24 08:38:25;;;;;;;3.10;2.47;;;22.50;65.20;;;;;;5055637;28;20108;-66
2022/06/24 08:40:54;;;;;;;4.78;3.15;;;22.50;64.80;;;;;;5054407;28;20132;-66
2022/06/24 08:43:23;;;;;;;5.88;2.60;;;22.50;65.30;;;;;;5056155;28;20029;-66
2022/06/24 08:45:49;;;;;;;6.80;3.22;;;22.50;64.50;;;;;;5054520;28;20044;-67
2022/06/24 08:48:15;;;;;;;8.32;4.00;;;22.40;64.60;;;;;;5055525;28;20429;-65
2022/06/24 08:50:41;;;;;;;7.90;4.05;;;22.40;65.00;;;;;;5055712;28;20044;-64
2022/06/24 08:53:09;;;;;;;6.20;2.80;;;22.40;65.10;;;;;;5056243;28;20506;-65
2022/06/24 08:55:40;;;;;;;4.47;2.78;;;22.40;64.80;;;;;;5054545;28;20048;-64
2022/06/24 08:58:06;;;;;;;5.47;2.63;;;22.30;64.50;;;;;;5055610;28;20041;-65
2022/06/24 09:00:32;;;;;;;5.57;2.67;;;22.30;64.60;;;;;;5055622;28;20052;-64
2022/06/24 09:02:58;;;;;;;3.42;2.00;;;22.30;64.70;;;;;;5055333;28;20041;-65
2022/06/24 09:05:27;;;;;;;3.63;2.10;;;22.20;64.20;;;;;;5055758;28;20119;-64
2022/06/24 09:08:05;;;;;;;4.45;2.25;;;22.20;63.90;;;;;;5055731;28;20045;-64
2022/06/24 09:10:31;;;;;;;3.25;1.50;;;22.10;63.50;;;;;;5055312;28;20036;-65
2022/06/24 09:12:57;;;;;;;4.57;1.90;;;22.10;63.50;;;;;;5055841;28;20045;-65
2022/06/24 09:15:23;;;;;;;3.90;1.70;;;22.00;63.40;;;;;;5055298;28;20046;-65
2022/06/24 09:17:49;;;;;;;6.45;2.30;;;22.00;63.30;;;;;;5055157;28;20043;-64
2022/06/24 09:20:21;;;;;;;4.05;2.22;;;22.00;63.30;;;;;;5054909;28;20495;-65
2022/06/24 09:22:47;;;;;;;2.83;1.50;;;22.00;63.60;;;;;;5055484;28;20120;-64
2022/06/24 09:25:13;;;;;;;3.95;2.05;;;21.90;63.50;;;;;;5054415;28;20069;-65
2022/06/24 09:27:46;;;;;;;5.25;2.15;;;21.90;63.40;;;;;;5055387;28;20076;-65
2022/06/24 09:30:15;;;;;;;3.38;2.03;;;21.90;63.50;;;;;;5054186;28;20061;-65
2022/06/24 09:32:55;;;;;;;3.35;1.73;;;21.80;63.60;;;;;;5054147;28;20515;-65
2022/06/24 09:35:22;;;;;;;2.60;1.65;;;21.80;63.70;;;;;;5054427;28;20696;-64
2022/06/24 09:37:50;;;;;;;4.57;1.75;;;21.80;63.90;;;;;;5054781;28;20124;-65
2022/06/24 09:40:24;;;;;;;2.97;1.88;;;21.80;64.00;;;;;;5053990;28;20069;-64
2022/06/24 09:43:04;;;;;;;2.55;1.70;;;21.80;64.00;;;;;;5054931;28;20490;-64
2022/06/24 09:45:46;;;;;;;2.00;1.33;;;21.80;64.20;;;;;;5054333;28;20037;-65
2022/06/24 09:48:33;;;;;;;4.13;1.70;;;21.70;63.90;;;;;;5052956;28;20088;-67
2022/06/24 09:51:08;;;;;;;2.63;1.67;;;21.70;63.80;;;;;;5052973;28;20412;-66
2022/06/24 09:53:36;;;;;;;2.25;1.90;;;21.70;64.10;;;;;;5036526;28;20122;-67
2022/06/24 09:56:07;;;;;;;2.95;1.70;;;21.70;64.40;;;;;;5052980;28;20064;-67
2022/06/24 09:58:41;;;;;;;3.78;2.05;;;21.70;64.40;;;;;;5036782;28;20072;-67
2022/06/24 10:01:07;;;;;;;3.15;1.88;;;21.70;64.30;;;;;;5053568;28;20508;-67
2022/06/24 10:03:35;;;;;;;2.88;1.80;;;21.70;64.80;;;;;;5036063;28;20041;-67
2022/06/24 10:06:09;;;;;;;3.05;1.90;;;21.70;64.70;;;;;;5053277;28;20053;-67
2022/06/24 10:08:35;;;;;;;3.65;2.10;;;21.70;65.10;;;;;;5052746;28;20488;-67
2022/06/24 10:11:07;;;;;;;5.20;2.38;;;21.70;65.10;;;;;;5053949;28;20044;-67
2022/06/24 10:13:34;;;;;;;2.55;1.70;;;21.70;65.70;;;;;;5052366;28;20126;-67
2022/06/24 10:16:06;;;;;;;3.78;2.10;;;21.70;65.80;;;;;;5052298;28;20044;-65
2022/06/24 10:18:43;;;;;;;3.15;2.30;;;21.70;66.10;;;;;;5052568;28;20112;-65
2022/06/24 10:21:11;;;;;;;3.75;2.13;;;21.70;66.00;;;;;;5052553;28;20182;-65
2022/06/24 10:23:47;;;;;;;3.08;1.83;;;21.80;66.10;;;;;;5052920;28;20425;-66
2022/06/24 10:26:25;;;;;;;2.03;1.58;;;21.80;66.20;;;;;;5052257;28;20043;-66
2022/06/24 10:29:03;;;;;;;2.63;1.60;;;21.80;66.00;;;;;;5054124;28;20037;-66
2022/06/24 10:31:59;;;;;;;2.90;1.95;;;21.80;65.80;;;;;;5043816;28;20128;-66
2022/06/24 10:34:32;;;;;;;4.35;1.85;;;21.80;65.30;;;;;;5051386;28;20041;-66
2022/06/24 10:37:10;;;;;;;3.10;1.73;;;21.80;65.30;;;;;;5052148;28;20053;-66
2022/06/24 10:39:47;;;;;;;9.90;2.58;;;21.90;65.30;;;;;;5057963;28;20045;-67
2022/06/24 10:42:14;;;;;;;4.07;2.20;;;21.90;65.40;;;;;;5051701;28;20500;-64
2022/06/24 10:45:04;;;;;;;3.78;2.25;;;21.90;65.60;;;;;;5047883;28;20094;-64
2022/06/24 10:47:30;;;;;;;4.05;2.17;;;21.90;65.80;;;;;;5051935;28;20045;-65
2022/06/24 10:50:02;;;;;;;3.47;2.45;;;21.90;65.90;;;;;;5052323;28;20472;-66
2022/06/24 10:52:32;;;;;;;4.60;2.90;;;21.90;66.20;;;;;;5052554;28;20397;-65
2022/06/24 10:55:28;;;;;;;3.67;2.70;;;22.00;66.70;;;;;;5051667;28;20091;-66
2022/06/24 10:58:03;;;;;;;5.82;4.03;;;22.00;66.50;;;;;;5052431;28;20052;-68
2022/06/24 11:00:43;;;;;;;5.45;3.88;;;22.00;66.80;;;;;;5052124;28;20072;-68
2022/06/24 11:03:08;;;;;;;5.15;2.83;;;22.00;66.90;;;;;;5056023;28;20041;-68
2022/06/24 11:05:39;;;;;;;8.40;6.05;;;22.10;66.80;;;;;;5051762;28;20090;-68
2022/06/24 11:08:16;;;;;;;6.43;5.82;;;22.10;67.30;;;;;;5051900;28;20531;-71
2022/06/24 11:10:43;;;;;;;6.88;6.18;;;22.10;67.30;;;;;;5051336;28;20043;-68
2022/06/24 11:13:10;;;;;;;7.88;7.18;;;22.20;67.40;;;;;;5052226;28;20112;-68
2022/06/24 11:15:42;;;;;;;7.78;6.35;;;22.20;67.20;;;;;;5052005;28;20103;-68
2022/06/24 11:18:11;;;;;;;7.72;6.55;;;22.20;66.90;;;;;;5051943;28;20079;-68
2022/06/24 11:20:39;;;;;;;8.77;7.57;;;22.20;66.70;;;;;;5051441;28;20037;-68
2022/06/24 11:23:12;;;;;;;9.75;8.60;;;22.30;66.80;;;;;;5051533;28;20124;-68
2022/06/24 11:25:39;;;;;;;9.95;8.90;;;22.30;66.80;;;;;;5051669;28;20053;-69
2022/06/24 11:28:17;;;;;;;10.45;9.27;;;22.30;66.90;;;;;;5051162;28;20048;-70
2022/06/24 11:30:43;;;;;;;10.82;9.82;;;22.40;66.60;;;;;;5051017;28;20081;-68
2022/06/24 11:33:08;;;;;;;12.02;11.02;;;22.40;66.60;;;;;;5049950;28;20041;-70
2022/06/24 11:35:34;;;;;;;11.50;10.43;;;22.40;66.90;;;;;;5051331;28;20106;-68
2022/06/24 11:38:05;;;;;;;11.63;10.60;;;22.50;66.90;;;;;;5050931;28;20052;-68
2022/06/24 11:40:32;;;;;;;12.00;10.93;;;22.50;67.10;;;;;;5055136;28;20052;-69
2022/06/24 11:43:11;;;;;;;13.02;11.70;;;22.50;67.30;;;;;;5050164;28;20041;-68
2022/06/24 11:45:40;;;;;;;12.07;10.98;;;22.60;67.40;;;;;;5044084;28;20055;-69
2022/06/24 11:48:07;;;;;;;14.48;12.98;;;22.60;67.60;;;;;;5033765;28;20044;-68
2022/06/24 11:50:34;;;;;;;15.50;11.88;;;22.70;67.70;;;;;;5051375;28;20496;-68
2022/06/24 11:53:01;;;;;;;14.27;12.98;;;22.70;67.60;;;;;;5049378;28;20041;-69
2022/06/24 11:55:35;;;;;;;12.75;11.55;;;22.80;67.30;;;;;;5060238;28;20071;-69
2022/06/24 11:58:03;;;;;;;12.50;11.23;;;22.80;67.30;;;;;;5059440;28;20041;-69
2022/06/24 12:00:36;;;;;;;13.52;12.07;;;22.90;67.50;;;;;;5060593;28;20036;-68
2022/06/24 12:03:04;;;;;;;11.95;10.65;;;23.00;67.10;;;;;;5060685;28;20048;-69
2022/06/24 12:05:32;;;;;;;12.77;11.48;;;23.00;66.50;;;;;;5059777;28;20102;-69
2022/06/24 12:08:00;;;;;;;11.48;10.38;;;23.10;66.30;;;;;;5059697;28;20064;-69
2022/06/24 12:10:26;;;;;;;13.82;12.52;;;23.20;65.90;;;;;;5061799;28;20435;-69
2022/06/24 12:13:07;;;;;;;11.93;10.77;;;23.20;65.90;;;;;;5061894;28;20098;-69
2022/06/24 12:15:36;;;;;;;12.80;11.60;;;23.30;65.60;;;;;;5060969;28;20052;-68
2022/06/24 12:18:11;;;;;;;13.68;12.20;;;23.30;65.60;;;;;;5060443;28;20082;-68
2022/06/24 12:20:37;;;;;;;12.55;11.35;;;23.40;65.20;;;;;;5061004;28;20408;-68
2022/06/24 12:23:22;;;;;;;11.90;10.70;;;23.40;65.00;;;;;;5060517;28;20041;-68
2022/06/24 12:25:50;;;;;;;12.15;11.02;;;23.50;64.40;;;;;;5061669;28;20082;-68
2022/06/24 12:28:21;;;;;;;12.05;10.65;;;23.50;64.70;;;;;;5059226;28;20048;-68
2022/06/24 12:30:58;;;;;;;13.52;12.23;;;23.60;64.60;;;;;;5058949;28;20080;-68
2022/06/24 12:33:24;;;;;;;13.68;12.25;;;23.60;64.70;;;;;;5060476;28;20075;-68
2022/06/24 12:36:09;;;;;;;11.05;10.05;;;23.60;64.50;;;;;;5057881;28;20123;-69
2022/06/24 12:38:58;;;;;;;11.82;10.63;;;23.70;64.30;;;;;;5060005;28;20040;-68
2022/06/24 12:41:23;;;;;;;12.32;11.23;;;23.70;64.50;;;;;;5036138;28;20044;-68
2022/06/24 12:43:57;;;;;;;12.18;10.57;;;23.80;64.40;;;;;;5060702;28;20506;-69
2022/06/24 12:46:24;;;;;;;11.15;10.05;;;23.80;63.50;;;;;;5062749;28;20089;-68
2022/06/24 12:51:40;;;;;;;13.50;12.10;;;23.90;63.30;;;;;;5055902;28;20064;-70
2022/06/24 12:54:06;;;;;;;13.73;12.52;;;24.00;63.70;;;;;;5045371;28;20051;-68
2022/06/24 12:56:34;;;;;;;11.98;10.88;;;24.00;63.20;;;;;;5065371;28;20373;-69
2022/06/24 12:59:00;;;;;;;12.43;11.23;;;24.10;63.00;;;;;;5064116;28;20139;-69
2022/06/24 13:01:26;;;;;;;13.48;12.07;;;24.10;62.50;;;;;;5065357;28;20044;-69